Time;durP1;ratioP1;P1;durP2;ratioP2;P2;SDS_P1;SDS_P2;PMS_P1;PMS_P2;Temp;Humidity;BMP_temperature;BMP_pressure;BME280_temperature;BME280_humidity;BME280_pressure;Samples;Min_cycle;Max_cycle;Signal;HPM_P1;HPM_P2
2023/02/04 00:00:19;;;;;;;9.65;8.00;;;;;;;2.61;100.00;102752.66;10105314;28;20485;-69
2023/02/04 00:05:17;;;;;;;7.60;6.90;;;;;;;2.66;100.00;102760.94;10098927;28;20047;-69
2023/02/04 00:10:14;;;;;;;8.10;7.30;;;;;;;2.70;100.00;102767.56;10066013;28;20051;-69
2023/02/04 00:15:10;;;;;;;8.45;7.75;;;;;;;2.76;100.00;102765.03;10070432;28;20082;-70
2023/02/04 00:20:07;;;;;;;7.90;7.30;;;;;;;2.56;100.00;102771.38;10074066;28;20051;-69
2023/02/04 00:25:04;;;;;;;8.88;8.10;;;;;;;2.38;100.00;102777.44;10105305;28;20050;-69
2023/02/04 00:30:00;;;;;;;9.40;8.63;;;;;;;2.25;100.00;102802.63;10112095;28;20053;-67
2023/02/04 00:34:57;;;;;;;9.07;8.30;;;;;;;2.14;100.00;102816.75;10109137;28;20473;-69
2023/02/04 00:39:53;;;;;;;11.50;10.70;;;;;;;2.08;100.00;102839.16;10069629;28;20062;-69
2023/02/04 00:44:49;;;;;;;10.45;9.75;;;;;;;2.02;100.00;102850.78;10075641;28;20044;-69
2023/02/04 00:49:46;;;;;;;13.60;12.70;;;;;;;1.91;100.00;102860.34;10069199;28;20517;-69
2023/02/04 00:54:42;;;;;;;12.07;11.00;;;;;;;1.93;100.00;102879.88;10071680;28;20138;-68
2023/02/04 00:59:39;;;;;;;12.98;12.18;;;;;;;1.93;100.00;102906.00;10071489;28;20047;-68
2023/02/04 01:04:35;;;;;;;14.35;13.35;;;;;;;2.03;100.00;102922.63;10072993;28;20044;-69
2023/02/04 01:09:32;;;;;;;16.17;15.27;;;;;;;2.24;100.00;102935.91;10070799;28;20051;-68
2023/02/04 01:14:29;;;;;;;14.40;13.50;;;;;;;2.29;100.00;102955.00;10068611;28;20518;-69
2023/02/04 01:19:25;;;;;;;15.07;13.93;;;;;;;2.33;100.00;102949.22;10073818;28;20154;-67
2023/02/04 01:24:22;;;;;;;16.92;15.93;;;;;;;2.24;100.00;102967.47;10065907;28;20126;-67
2023/02/04 01:29:18;;;;;;;18.15;16.98;;;;;;;2.22;100.00;102981.16;10074291;28;20047;-67
2023/02/04 01:34:14;;;;;;;17.35;16.15;;;;;;;2.19;100.00;102987.00;10068214;28;20051;-67
2023/02/04 01:39:11;;;;;;;15.80;14.70;;;;;;;2.30;100.00;102988.25;10067599;28;20053;-67
2023/02/04 01:44:07;;;;;;;16.15;15.07;;;;;;;2.39;100.00;102996.97;10062955;28;20047;-68
2023/02/04 01:49:05;;;;;;;16.33;15.32;;;;;;;2.55;100.00;103001.94;10069481;28;20056;-68
2023/02/04 01:54:02;;;;;;;16.98;15.88;;;;;;;2.53;100.00;103025.66;10068683;28;20043;-67
2023/02/04 01:58:59;;;;;;;16.08;14.98;;;;;;;2.56;100.00;103024.41;10067442;28;20055;-67
2023/02/04 02:03:55;;;;;;;14.93;13.73;;;;;;;2.41;100.00;103027.28;10066390;28;20070;-67
2023/02/04 02:08:52;;;;;;;15.20;14.05;;;;;;;2.54;100.00;103035.41;10070874;28;20570;-66
2023/02/04 02:13:48;;;;;;;14.07;13.18;;;;;;;2.49;100.00;103052.22;10069809;28;20078;-68
2023/02/04 02:18:45;;;;;;;16.65;15.35;;;;;;;2.40;100.00;103052.63;10068258;28;20141;-68
2023/02/04 02:23:52;;;;;;;18.70;17.60;;;;;;;2.33;100.00;103062.59;10072024;28;20079;-68
2023/02/04 02:28:49;;;;;;;17.83;16.70;;;;;;;2.08;100.00;103077.47;10061692;28;20166;-67
2023/02/04 02:33:47;;;;;;;18.58;17.30;;;;;;;2.03;100.00;103081.84;10067305;28;20062;-67
2023/02/04 02:38:43;;;;;;;18.60;17.50;;;;;;;1.87;100.00;103102.72;10064082;28;20511;-67
2023/02/04 02:43:40;;;;;;;20.52;19.33;;;;;;;1.72;100.00;103120.94;10061949;28;20529;-68
2023/02/04 02:48:36;;;;;;;19.48;18.27;;;;;;;1.67;100.00;103134.16;10062191;28;20059;-67
2023/02/04 02:53:33;;;;;;;19.48;18.27;;;;;;;1.55;100.00;103147.38;10056884;28;20047;-67
2023/02/04 02:58:31;;;;;;;21.02;19.63;;;;;;;1.38;100.00;103162.19;10053251;28;20466;-67
2023/02/04 03:03:46;;;;;;;21.35;20.00;;;;;;;1.21;100.00;103167.03;10064114;28;20078;-68
2023/02/04 03:08:43;;;;;;;22.10;20.40;;;;;;;1.09;100.00;103173.97;10064841;28;20126;-69
2023/02/04 03:13:40;;;;;;;21.08;19.52;;;;;;;1.03;100.00;103187.19;10067062;28;20054;-69
2023/02/04 03:18:38;;;;;;;21.67;20.23;;;;;;;0.98;100.00;103189.63;10065312;28;20090;-69
2023/02/04 03:23:35;;;;;;;22.13;20.73;;;;;;;0.89;100.00;103196.19;10069751;28;20059;-69
2023/02/04 03:28:33;;;;;;;21.17;19.98;;;;;;;0.79;100.00;103211.81;10068223;28;20071;-69
2023/02/04 03:33:30;;;;;;;21.88;20.50;;;;;;;0.81;100.00;103231.31;10065169;28;20047;-69
2023/02/04 03:38:26;;;;;;;22.58;21.27;;;;;;;0.77;100.00;103240.81;10063816;28;20043;-70
2023/02/04 03:43:23;;;;;;;23.27;21.63;;;;;;;0.71;100.00;103258.53;10097039;28;20063;-67
2023/02/04 03:48:19;;;;;;;23.13;21.48;;;;;;;0.76;100.00;103276.84;10111183;28;20044;-67
2023/02/04 03:53:16;;;;;;;23.63;21.92;;;;;;;0.89;100.00;103287.75;10114142;28;20046;-68
2023/02/04 03:58:12;;;;;;;20.92;19.60;;;;;;;1.14;100.00;103300.88;10115524;28;20047;-67
2023/02/04 04:03:08;;;;;;;21.60;20.30;;;;;;;1.41;100.00;103308.19;10118368;28;20058;-67
2023/02/04 04:08:05;;;;;;;20.27;19.08;;;;;;;1.58;100.00;103321.41;10131892;28;20132;-69
2023/02/04 04:13:01;;;;;;;20.92;19.52;;;;;;;1.65;100.00;103311.53;10120077;28;20105;-66
2023/02/04 04:17:58;;;;;;;21.45;20.05;;;;;;;1.79;100.00;103316.00;10117783;28;20097;-67
2023/02/04 04:22:55;;;;;;;21.73;20.20;;;;;;;1.83;100.00;103328.09;10120730;28;20518;-69
2023/02/04 04:27:51;;;;;;;22.13;20.73;;;;;;;1.89;100.00;103348.88;10118809;28;20057;-70
2023/02/04 04:32:47;;;;;;;21.02;19.63;;;;;;;1.94;100.00;103344.75;10120788;28;20047;-69
2023/02/04 04:37:44;;;;;;;19.95;18.75;;;;;;;1.88;100.00;103352.63;10116810;28;20501;-69
2023/02/04 04:42:40;;;;;;;20.23;19.02;;;;;;;1.88;100.00;103351.75;10114825;28;20437;-66
2023/02/04 04:47:37;;;;;;;21.45;20.05;;;;;;;1.83;100.00;103355.06;10117062;28;20078;-68
2023/02/04 04:52:33;;;;;;;21.25;19.95;;;;;;;1.75;100.00;103365.97;10118742;28;20070;-68
2023/02/04 04:57:30;;;;;;;20.20;18.85;;;;;;;1.66;100.00;103375.22;10109436;28;20053;-68
2023/02/04 05:02:26;;;;;;;20.98;19.77;;;;;;;1.49;100.00;103381.91;10113774;28;20122;-68
2023/02/04 05:07:23;;;;;;;21.33;20.02;;;;;;;1.30;100.00;103392.28;10112181;28;20126;-68
2023/02/04 05:12:19;;;;;;;21.15;19.77;;;;;;;1.09;100.00;103394.91;10112860;28;20047;-68
2023/02/04 05:17:16;;;;;;;21.48;20.15;;;;;;;0.88;100.00;103419.94;10103751;28;20135;-67
2023/02/04 05:22:12;;;;;;;22.08;20.58;;;;;;;0.80;100.00;103432.47;10108760;28;20042;-68
2023/02/04 05:27:09;;;;;;;22.60;20.98;;;;;;;0.69;100.00;103435.63;10110874;28;20043;-68
2023/02/04 05:32:05;;;;;;;23.42;21.90;;;;;;;0.59;100.00;103443.16;10105371;28;20050;-67
2023/02/04 05:37:02;;;;;;;23.98;22.42;;;;;;;0.50;100.00;103445.09;10109219;28;20078;-66
2023/02/04 05:41:58;;;;;;;23.27;21.98;;;;;;;0.48;100.00;103449.81;10108813;28;20054;-66
2023/02/04 05:46:55;;;;;;;23.80;22.20;;;;;;;0.36;100.00;103459.34;10110573;28;20394;-66
2023/02/04 05:51:51;;;;;;;23.88;22.42;;;;;;;0.27;100.00;103466.66;10110375;28;20130;-66
2023/02/04 05:56:48;;;;;;;24.67;23.17;;;;;;;0.15;100.00;103468.94;10110034;28;20047;-68
2023/02/04 06:01:44;;;;;;;24.08;22.40;;;;;;;0.06;100.00;103474.56;10112928;28;20532;-68
2023/02/04 06:06:41;;;;;;;24.20;22.67;;;;;;;0.04;100.00;103477.44;10109116;28;20053;-69
2023/02/04 06:11:38;;;;;;;25.17;23.48;;;;;;;-0.01;100.00;103490.59;10101131;28;20485;-67
2023/02/04 06:16:35;;;;;;;25.02;23.13;;;;;;;-0.09;100.00;103498.72;10111014;28;20114;-66
2023/02/04 06:21:31;;;;;;;24.85;23.17;;;;;;;-0.19;100.00;103508.88;10097904;28;20050;-66
2023/02/04 06:26:28;;;;;;;23.20;21.77;;;;;;;-0.25;100.00;103511.25;10099662;28;20513;-69
2023/02/04 06:31:24;;;;;;;24.50;22.92;;;;;;;-0.29;100.00;103536.81;10106881;28;20082;-67
2023/02/04 06:36:21;;;;;;;24.88;23.27;;;;;;;-0.25;100.00;103540.84;10103287;28;20098;-67
2023/02/04 06:41:17;;;;;;;24.40;22.70;;;;;;;-0.29;100.00;103541.34;10103093;28;20445;-67
2023/02/04 06:46:14;;;;;;;24.67;23.02;;;;;;;-0.29;100.00;103558.31;10108248;28;20069;-67
2023/02/04 06:51:11;;;;;;;24.40;22.92;;;;;;;-0.25;100.00;103569.56;10103372;28;20051;-68
2023/02/04 06:56:07;;;;;;;24.88;23.27;;;;;;;-0.20;100.00;103580.63;10106814;28;20134;-67
2023/02/04 07:01:05;;;;;;;23.23;21.83;;;;;;;-0.17;100.00;103582.13;10106775;28;20500;-66
2023/02/04 07:06:01;;;;;;;23.60;22.13;;;;;;;-0.12;100.00;103593.19;10096917;28;20046;-67
2023/02/04 07:10:58;;;;;;;24.13;22.40;;;;;;;-0.07;100.00;103609.66;10102425;28;20620;-67
2023/02/04 07:15:54;;;;;;;23.85;22.00;;;;;;;-0.03;100.00;103616.34;10098338;28;20138;-69
2023/02/04 07:20:51;;;;;;;23.98;22.15;;;;;;;-0.06;100.00;103619.41;10100316;28;20436;-68
2023/02/04 07:25:47;;;;;;;23.20;21.58;;;;;;;-0.10;100.00;103629.66;10101785;28;20046;-69
2023/02/04 07:30:44;;;;;;;24.05;22.35;;;;;;;-0.03;100.00;103640.56;10107228;28;20093;-67
2023/02/04 07:35:41;;;;;;;22.02;20.67;;;;;;;0.06;100.00;103646.75;10098920;28;20610;-66
2023/02/04 07:40:38;;;;;;;22.17;20.75;;;;;;;0.24;100.00;103655.41;10063407;28;20142;-66
2023/02/04 07:45:34;;;;;;;23.50;21.70;;;;;;;0.35;100.00;103656.88;10065015;28;20058;-66
2023/02/04 07:50:31;;;;;;;22.42;20.73;;;;;;;0.45;100.00;103656.63;10065390;28;20413;-66
2023/02/04 07:55:28;;;;;;;22.25;20.75;;;;;;;0.56;100.00;103662.44;10066459;28;20047;-68
2023/02/04 08:00:24;;;;;;;23.17;21.40;;;;;;;0.56;100.00;103670.53;10102531;28;20054;-68
2023/02/04 08:05:20;;;;;;;22.70;21.00;;;;;;;0.67;100.00;103673.81;10103160;28;20047;-68
2023/02/04 08:10:17;;;;;;;23.67;21.73;;;;;;;0.75;100.00;103676.47;10103435;28;20051;-67
2023/02/04 08:15:14;;;;;;;24.00;22.30;;;;;;;0.71;100.00;103678.66;10099026;28;20126;-67
2023/02/04 08:20:11;;;;;;;30.08;28.02;;;;;;;0.75;100.00;103692.63;10106924;28;20085;-68
2023/02/04 08:25:10;;;;;;;26.75;24.95;;;;;;;0.88;100.00;103687.47;10090020;28;20055;-67
2023/02/04 08:30:07;;;;;;;25.30;23.50;;;;;;;1.00;100.00;103699.50;10089361;28;20062;-67
2023/02/04 08:35:05;;;;;;;27.27;25.52;;;;;;;1.13;100.00;103706.13;10108682;28;20050;-67
2023/02/04 08:40:02;;;;;;;26.30;24.60;;;;;;;1.21;100.00;103706.09;10107730;28;20067;-67
2023/02/04 08:44:58;;;;;;;28.77;26.83;;;;;;;1.22;100.00;103707.75;10103886;28;20069;-67
2023/02/04 08:49:55;;;;;;;29.58;27.77;;;;;;;1.34;100.00;103700.06;10104142;28;20595;-67
2023/02/04 08:54:51;;;;;;;29.17;27.38;;;;;;;1.50;100.00;103702.59;10107791;28;20134;-67
2023/02/04 08:59:47;;;;;;;28.52;26.73;;;;;;;1.71;100.00;103720.75;10105160;28;20049;-67
2023/02/04 09:04:44;;;;;;;28.90;27.08;;;;;;;1.92;100.00;103724.59;10107327;28;20050;-67
2023/02/04 09:09:40;;;;;;;25.08;23.27;;;;;;;2.04;100.00;103720.38;10104406;28;20051;-66
2023/02/04 09:14:37;;;;;;;21.50;20.20;;;;;;;2.08;100.00;103729.78;10101858;28;20446;-66
2023/02/04 09:19:33;;;;;;;19.83;18.52;;;;;;;2.20;100.00;103725.59;10110434;28;20515;-66
2023/02/04 09:24:29;;;;;;;16.73;15.48;;;;;;;2.20;100.00;103728.28;10103897;28;20074;-66
2023/02/04 09:29:26;;;;;;;15.70;14.70;;;;;;;2.35;100.00;103733.69;10111609;28;20505;-66
2023/02/04 09:34:22;;;;;;;15.73;14.60;;;;;;;2.47;100.00;103734.88;10109663;28;20050;-66
2023/02/04 09:39:19;;;;;;;15.38;14.38;;;;;;;2.67;100.00;103729.72;10105371;28;20130;-66
2023/02/04 09:44:18;;;;;;;15.60;14.52;;;;;;;2.69;100.00;103727.66;10101002;28;20505;-66
2023/02/04 09:49:15;;;;;;;16.25;14.73;;;;;;;2.84;100.00;103733.00;10103892;28;20118;-66
2023/02/04 09:54:14;;;;;;;14.25;13.10;;;;;;;3.17;100.00;103730.59;10095118;28;20621;-66
2023/02/04 09:59:13;;;;;;;10.38;9.50;;;;;;;3.31;100.00;103731.56;10100909;28;20035;-66
2023/02/04 10:04:13;;;;;;;10.18;9.38;;;;;;;3.57;100.00;103736.38;10108135;28;20082;-65
2023/02/04 10:09:12;;;;;;;10.45;9.68;;;;;;;3.74;100.00;103744.19;10103786;28;20413;-66
2023/02/04 10:14:15;;;;;;;6.63;6.00;;;;;;;4.05;100.00;103738.34;10108836;28;20078;-66
2023/02/04 10:19:14;;;;;;;6.72;6.20;;;;;;;4.72;100.00;103753.00;10106045;28;20073;-66
2023/02/04 10:24:16;;;;;;;6.75;5.65;;;;;;;4.89;100.00;103734.47;10107011;28;20501;-66
2023/02/04 10:29:22;;;;;;;5.75;5.15;;;;;;;5.57;100.00;103739.75;10101352;28;20678;-66
2023/02/04 10:34:22;;;;;;;6.82;5.25;;;;;;;5.81;100.00;103737.41;10099032;28;20422;-66
2023/02/04 10:39:21;;;;;;;6.18;5.57;;;;;;;6.07;100.00;103731.94;10103357;28;20552;-66
2023/02/04 10:44:24;;;;;;;8.18;6.35;;;;;;;6.08;100.00;103744.50;10100812;28;20086;-65
2023/02/04 10:49:23;;;;;;;7.20;5.53;;;;;;;5.89;100.00;103739.91;10100265;28;20075;-66
2023/02/04 10:54:29;;;;;;;5.25;4.75;;;;;;;6.00;100.00;103752.84;10102521;28;20137;-66
2023/02/04 10:59:27;;;;;;;5.28;4.78;;;;;;;5.50;100.00;103744.34;10094199;28;20489;-66
2023/02/04 11:04:25;;;;;;;5.70;5.10;;;;;;;5.40;100.00;103757.50;10107611;28;20062;-66
2023/02/04 11:09:22;;;;;;;5.68;5.07;;;;;;;5.06;100.00;103756.63;10069801;28;20067;-66
2023/02/04 11:14:25;;;;;;;11.52;5.05;;;;;;;5.25;100.00;103755.81;10065392;28;20043;-66
2023/02/04 11:19:34;;;;;;;5.25;4.75;;;;;;;5.59;100.00;103764.81;10057820;28;20047;-66
2023/02/04 11:24:33;;;;;;;7.10;4.65;;;;;;;5.34;100.00;103766.44;10067428;28;20070;-65
2023/02/04 11:29:36;;;;;;;6.35;4.80;;;;;;;5.43;100.00;103757.06;10101949;28;20046;-66
2023/02/04 11:34:49;;;;;;;5.18;4.38;;;;;;;5.46;100.00;103772.94;10098128;28;20098;-66
2023/02/04 11:39:48;;;;;;;6.07;4.78;;;;;;;5.38;100.00;103754.13;10099249;28;20126;-65
2023/02/04 11:44:54;;;;;;;5.28;4.60;;;;;;;5.43;100.00;103755.22;10096316;28;20516;-66
2023/02/04 11:49:57;;;;;;;5.25;4.47;;;;;;;5.40;100.00;103765.63;10102406;28;20046;-65
2023/02/04 11:54:58;;;;;;;5.32;4.65;;;;;;;6.48;100.00;103755.22;10100345;28;20043;-66
2023/02/04 11:59:55;;;;;;;6.03;4.60;;;;;;;6.55;100.00;103754.38;10101048;28;20585;-66
2023/02/04 12:05:07;;;;;;;5.57;5.07;;;;;;;7.07;100.00;103768.69;10063046;28;20079;-66
2023/02/04 12:10:15;;;;;;;4.70;4.03;;;;;;;6.63;100.00;103759.53;10110082;28;20267;-66
2023/02/04 12:15:20;;;;;;;5.13;4.60;;;;;;;6.26;100.00;103767.41;10110060;28;20156;-66
2023/02/04 12:20:17;;;;;;;5.25;4.75;;;;;;;6.14;100.00;103763.69;10110409;28;20053;-67
2023/02/04 12:25:15;;;;;;;5.45;4.60;;;;;;;6.01;100.00;103770.84;10108626;28;20105;-68
2023/02/04 12:30:12;;;;;;;5.22;4.75;;;;;;;6.16;100.00;103769.75;10113473;28;20493;-67
2023/02/04 12:35:09;;;;;;;4.90;4.40;;;;;;;6.67;100.00;103768.94;10109572;28;20050;-68
2023/02/04 12:40:06;;;;;;;5.22;4.72;;;;;;;6.64;100.00;103769.38;10111523;28;20130;-65
2023/02/04 12:45:02;;;;;;;7.10;4.72;;;;;;;7.84;100.00;103773.94;10112255;28;20077;-67
2023/02/04 12:49:59;;;;;;;6.45;4.60;;;;;;;8.77;100.00;103775.59;10105794;28;20047;-67
2023/02/04 12:54:56;;;;;;;6.13;5.32;;;;;;;9.11;100.00;103775.97;10067694;28;20043;-67
2023/02/04 12:59:54;;;;;;;5.88;4.85;;;;;;;8.90;100.00;103775.44;10071670;28;20043;-68
2023/02/04 13:04:51;;;;;;;6.22;5.32;;;;;;;9.44;100.00;103779.00;10067822;28;20433;-67
2023/02/04 13:09:48;;;;;;;6.22;5.15;;;;;;;9.31;100.00;103787.44;10073667;28;20445;-68
2023/02/04 13:14:44;;;;;;;6.05;5.28;;;;;;;9.16;100.00;103797.94;10070005;28;20082;-67
2023/02/04 13:19:41;;;;;;;5.88;5.35;;;;;;;9.40;100.00;103791.47;10069979;28;20079;-68
2023/02/04 13:24:37;;;;;;;7.60;5.70;;;;;;;8.98;100.00;103796.94;10071262;28;20125;-68
2023/02/04 13:29:34;;;;;;;6.18;4.47;;;;;;;9.16;100.00;103787.03;10069883;28;20124;-67
2023/02/04 13:34:30;;;;;;;6.05;4.68;;;;;;;8.18;100.00;103792.44;10067260;28;20406;-67
2023/02/04 13:39:26;;;;;;;5.18;4.47;;;;;;;7.91;100.00;103793.78;10058528;28;20039;-67
2023/02/04 13:44:23;;;;;;;6.07;5.30;;;;;;;7.72;100.00;103788.28;10050250;28;20154;-67
2023/02/04 13:49:20;;;;;;;5.05;4.10;;;;;;;7.53;100.00;103794.75;10049808;28;20130;-67
2023/02/04 13:54:16;;;;;;;5.18;4.53;;;;;;;7.97;100.00;103803.78;10052877;28;20087;-67
2023/02/04 13:59:13;;;;;;;5.22;4.70;;;;;;;7.85;100.00;103802.88;10052538;28;20048;-67
2023/02/04 14:04:09;;;;;;;4.88;3.80;;;;;;;7.55;100.00;103801.63;10052226;28;20138;-67
2023/02/04 14:09:06;;;;;;;4.72;4.05;;;;;;;7.13;100.00;103800.47;10050363;28;20478;-67
2023/02/04 14:14:02;;;;;;;4.30;3.90;;;;;;;6.95;100.00;103807.47;10050929;28;20146;-67
2023/02/04 14:18:59;;;;;;;6.30;4.47;;;;;;;6.39;100.00;103819.00;10049926;28;20561;-67
2023/02/04 14:23:55;;;;;;;6.53;4.35;;;;;;;6.55;100.00;103819.59;10051773;28;20079;-67
2023/02/04 14:28:52;;;;;;;4.75;4.25;;;;;;;6.32;100.00;103818.22;10063978;28;20040;-67
2023/02/04 14:33:49;;;;;;;4.70;4.20;;;;;;;5.98;100.00;103824.75;10065214;28;20580;-67
2023/02/04 14:38:45;;;;;;;5.70;4.85;;;;;;;5.95;100.00;103826.00;10064214;28;20486;-67
2023/02/04 14:43:42;;;;;;;4.95;4.10;;;;;;;5.75;100.00;103830.56;10067067;28;20051;-68
2023/02/04 14:48:38;;;;;;;4.60;4.13;;;;;;;5.59;100.00;103831.81;10095820;28;20047;-67
2023/02/04 14:53:35;;;;;;;5.15;4.65;;;;;;;5.16;100.00;103827.59;10100125;28;20141;-67
2023/02/04 14:58:31;;;;;;;5.25;4.75;;;;;;;4.98;100.00;103830.03;10108986;28;20054;-67
2023/02/04 15:03:28;;;;;;;4.68;4.18;;;;;;;5.09;100.00;103848.44;10106374;28;20428;-67
2023/02/04 15:08:24;;;;;;;5.25;4.32;;;;;;;5.01;100.00;103840.47;10111052;28;20074;-67
2023/02/04 15:13:21;;;;;;;5.53;4.45;;;;;;;4.99;100.00;103843.41;10106596;28;20078;-67
2023/02/04 15:18:17;;;;;;;4.78;4.28;;;;;;;4.97;100.00;103844.66;10104793;28;20070;-67
2023/02/04 15:23:14;;;;;;;6.47;4.63;;;;;;;4.87;100.00;103849.59;10109095;28;20066;-67
2023/02/04 15:28:10;;;;;;;4.85;4.30;;;;;;;4.55;100.00;103846.53;10076378;28;20129;-67
2023/02/04 15:33:07;;;;;;;5.72;4.88;;;;;;;4.32;100.00;103842.25;10059587;28;20047;-67
2023/02/04 15:38:04;;;;;;;7.38;4.82;;;;;;;4.27;100.00;103852.84;10065915;28;20053;-67
2023/02/04 15:43:00;;;;;;;7.82;4.97;;;;;;;4.28;100.00;103840.13;10063908;28;20133;-67
2023/02/04 15:47:57;;;;;;;5.30;4.80;;;;;;;4.17;100.00;103838.81;10070867;28;20059;-67
2023/02/04 15:52:53;;;;;;;5.68;5.03;;;;;;;3.98;100.00;103852.00;10071194;28;20126;-67
2023/02/04 15:57:50;;;;;;;5.60;5.00;;;;;;;3.94;100.00;103853.44;10067598;28;20058;-67
2023/02/04 16:02:46;;;;;;;5.63;5.13;;;;;;;3.81;100.00;103856.03;10068594;28;20197;-67
2023/02/04 16:07:43;;;;;;;5.90;5.40;;;;;;;3.80;100.00;103866.00;10066291;28;20044;-67
2023/02/04 16:12:39;;;;;;;8.23;6.45;;;;;;;3.75;100.00;103862.22;10062433;28;20059;-67
2023/02/04 16:17:35;;;;;;;6.25;4.72;;;;;;;3.71;100.00;103871.75;10067276;28;20126;-67
2023/02/04 16:22:32;;;;;;;7.85;5.25;;;;;;;3.58;100.00;103873.31;10068887;28;20654;-67
2023/02/04 16:27:30;;;;;;;8.85;5.72;;;;;;;3.63;100.00;103869.19;10063740;28;20055;-68
2023/02/04 16:32:27;;;;;;;8.25;5.78;;;;;;;3.54;100.00;103872.03;10069610;28;20057;-67
2023/02/04 16:37:24;;;;;;;6.13;5.07;;;;;;;3.40;100.00;103870.22;10065902;28;20491;-66
2023/02/04 16:42:20;;;;;;;7.93;5.85;;;;;;;3.42;100.00;103878.97;10064395;28;20130;-68
2023/02/04 16:47:17;;;;;;;6.50;5.85;;;;;;;3.35;100.00;103878.09;10085889;28;20039;-67
2023/02/04 16:52:13;;;;;;;7.90;5.47;;;;;;;3.33;100.00;103890.94;10107528;28;20117;-67
2023/02/04 16:57:11;;;;;;;7.28;5.40;;;;;;;3.27;100.00;103891.72;10105887;28;20043;-65
2023/02/04 17:02:08;;;;;;;6.00;5.40;;;;;;;3.09;100.00;103892.97;10122902;28;20101;-66
2023/02/04 17:07:05;;;;;;;5.93;5.32;;;;;;;3.05;100.00;103899.78;10110470;28;20061;-66
2023/02/04 17:12:01;;;;;;;6.35;5.65;;;;;;;3.05;100.00;103894.38;10107693;28;20058;-66
2023/02/04 17:16:58;;;;;;;6.65;6.05;;;;;;;3.03;100.00;103901.84;10110242;28;20497;-67
2023/02/04 17:21:54;;;;;;;7.80;6.05;;;;;;;2.94;100.00;103897.56;10109118;28;20134;-66
2023/02/04 17:26:51;;;;;;;8.32;6.53;;;;;;;2.84;100.00;103907.84;10105868;28;20133;-66
2023/02/04 17:31:47;;;;;;;7.55;6.38;;;;;;;2.72;100.00;103908.31;10092679;28;20066;-67
2023/02/04 17:36:44;;;;;;;7.85;6.45;;;;;;;2.63;100.00;103917.53;10110490;28;20126;-67
2023/02/04 17:41:40;;;;;;;11.32;6.25;;;;;;;2.50;100.00;103911.91;10108582;28;20046;-66
2023/02/04 17:46:37;;;;;;;6.90;6.18;;;;;;;2.47;100.00;103917.69;10108857;28;20043;-68
2023/02/04 17:51:33;;;;;;;7.07;6.38;;;;;;;2.40;100.00;103914.06;10107562;28;20051;-66
2023/02/04 17:56:30;;;;;;;6.95;6.25;;;;;;;2.30;100.00;103907.06;10107160;28;20047;-68
2023/02/04 18:01:27;;;;;;;8.27;6.72;;;;;;;2.19;100.00;103904.81;10108754;28;20054;-68
2023/02/04 18:06:27;;;;;;;7.72;6.43;;;;;;;1.99;100.00;103888.28;10110630;28;20067;-68
2023/02/04 18:11:26;;;;;;;7.68;6.72;;;;;;;1.82;100.00;103898.38;10101937;28;20085;-68
2023/02/04 18:16:27;;;;;;;7.63;6.90;;;;;;;1.88;100.00;103896.81;10092013;28;20086;-68
2023/02/04 18:21:26;;;;;;;6.72;6.13;;;;;;;1.96;100.00;103899.44;10108354;28;20673;-68
2023/02/04 18:26:24;;;;;;;6.80;6.10;;;;;;;2.05;100.00;103908.31;10103247;28;20716;-67
2023/02/04 18:31:33;;;;;;;6.80;5.97;;;;;;;2.09;100.00;103920.44;10109060;28;20775;-67
2023/02/04 18:36:32;;;;;;;5.80;5.20;;;;;;;2.12;100.00;103919.22;10100774;28;20077;-67
2023/02/04 18:41:32;;;;;;;8.57;5.95;;;;;;;2.03;100.00;103926.56;10107781;28;20484;-67
2023/02/04 18:46:34;;;;;;;7.68;6.10;;;;;;;2.00;100.00;103921.53;10108574;28;20136;-67
2023/02/04 18:51:33;;;;;;;7.70;6.25;;;;;;;2.04;100.00;103917.41;10109050;28;20070;-68
2023/02/04 18:56:35;;;;;;;6.50;5.60;;;;;;;2.16;100.00;103921.38;10105556;28;20042;-68
2023/02/04 19:01:37;;;;;;;6.90;6.20;;;;;;;2.12;100.00;103920.06;10100783;28;20058;-67
2023/02/04 19:06:39;;;;;;;7.07;6.38;;;;;;;2.08;100.00;103921.44;10097332;28;20083;-68
2023/02/04 19:11:39;;;;;;;6.57;5.73;;;;;;;2.16;100.00;103920.53;10080612;28;20649;-67
2023/02/04 19:16:36;;;;;;;6.55;5.85;;;;;;;2.10;100.00;103922.09;10064704;28;20082;-68
2023/02/04 19:21:33;;;;;;;7.40;6.40;;;;;;;2.13;100.00;103921.72;10060726;28;20055;-68
2023/02/04 19:26:41;;;;;;;7.22;5.28;;;;;;;2.08;100.00;103913.34;10063611;28;20067;-67
2023/02/04 19:31:40;;;;;;;6.20;5.70;;;;;;;2.07;100.00;103911.69;10085037;28;20414;-68
2023/02/04 19:36:37;;;;;;;6.80;6.13;;;;;;;1.94;100.00;103917.69;10057112;28;20043;-67
2023/02/04 19:41:43;;;;;;;7.30;6.60;;;;;;;1.68;100.00;103909.97;10073646;28;20047;-67
2023/02/04 19:46:43;;;;;;;7.50;6.80;;;;;;;1.57;100.00;103915.75;10104108;28;20081;-68
2023/02/04 19:51:39;;;;;;;7.72;7.00;;;;;;;1.40;100.00;103915.88;10100389;28;20153;-67
2023/02/04 19:56:38;;;;;;;7.20;6.60;;;;;;;1.28;100.00;103914.59;10095976;28;20053;-68
2023/02/04 20:01:35;;;;;;;6.97;6.38;;;;;;;1.29;100.00;103916.25;10104123;28;20047;-67
2023/02/04 20:06:35;;;;;;;7.35;6.75;;;;;;;0.93;100.00;103908.72;10103809;28;20057;-67
2023/02/04 20:11:34;;;;;;;7.75;6.93;;;;;;;0.83;100.00;103918.81;10105997;28;20047;-67
2023/02/04 20:16:59;;;;;;;8.00;7.40;;;;;;;0.86;100.00;103906.88;10102507;28;20150;-66
2023/02/04 20:22:18;;;;;;;8.70;8.00;;;;;;;0.70;100.00;103908.63;10089707;28;20086;-67
2023/02/04 20:27:19;;;;;;;8.23;7.53;;;;;;;0.56;100.00;103901.25;10105569;28;20047;-67
2023/02/04 20:32:24;;;;;;;9.73;8.80;;;;;;;0.54;100.00;103887.97;10106186;28;20055;-67
2023/02/04 20:37:25;;;;;;;9.30;8.40;;;;;;;0.45;100.00;103889.00;10107022;28;20043;-67
2023/02/04 20:42:33;;;;;;;9.20;8.30;;;;;;;0.34;100.00;103892.03;10127441;28;20074;-67
2023/02/04 20:47:33;;;;;;;9.38;8.55;;;;;;;0.29;100.00;103894.41;10107651;28;20047;-68
2023/02/04 20:53:06;;;;;;;10.93;9.85;;;;;;;0.15;100.00;103894.09;10111428;28;20075;-67
2023/02/04 20:58:25;;;;;;;10.80;9.90;;;;;;;0.12;100.00;103889.06;10108686;28;20050;-67
2023/02/04 21:03:35;;;;;;;9.38;8.57;;;;;;;0.01;100.00;103885.88;10084438;28;20134;-68
2023/02/04 21:08:42;;;;;;;9.15;8.38;;;;;;;-0.08;100.00;103899.31;10070521;28;20069;-68
2023/02/04 21:13:39;;;;;;;9.15;8.30;;;;;;;-0.18;100.00;103909.41;10064480;28;20161;-67
2023/02/04 21:18:36;;;;;;;9.68;8.88;;;;;;;-0.04;100.00;103914.13;10070649;28;20082;-68
2023/02/04 21:23:34;;;;;;;9.77;8.88;;;;;;;-0.06;100.00;103912.59;10066354;28;20051;-68
2023/02/04 21:28:32;;;;;;;9.60;8.90;;;;;;;-0.30;100.00;103911.59;10066329;28;20051;-67
2023/02/04 21:33:29;;;;;;;9.52;8.73;;;;;;;-0.15;100.00;103913.63;10049715;28;20059;-69
2023/02/04 21:38:27;;;;;;;9.57;8.77;;;;;;;-0.12;100.00;103929.41;10065269;28;20043;-67
2023/02/04 21:43:23;;;;;;;10.50;9.60;;;;;;;-0.18;100.00;103922.03;10066009;28;20434;-68
2023/02/04 21:48:20;;;;;;;10.18;9.38;;;;;;;-0.16;100.00;103920.84;10067073;28;20047;-68
2023/02/04 21:53:17;;;;;;;10.50;9.68;;;;;;;-0.34;100.00;103931.75;10064928;28;20241;-68
2023/02/04 21:58:13;;;;;;;11.15;10.10;;;;;;;-0.40;100.00;103932.41;10066103;28;20043;-68
2023/02/04 22:03:14;;;;;;;11.20;10.15;;;;;;;-0.53;100.00;103924.81;10066570;28;20148;-68
2023/02/04 22:08:11;;;;;;;11.13;10.10;;;;;;;-0.52;100.00;103906.84;10061146;28;20067;-68
2023/02/04 22:13:09;;;;;;;10.63;9.73;;;;;;;-0.64;100.00;103903.63;10064207;28;20129;-67
2023/02/04 22:18:05;;;;;;;11.43;10.52;;;;;;;-0.70;100.00;103899.75;10063908;28;20044;-68
2023/02/04 22:23:02;;;;;;;11.38;10.48;;;;;;;-0.82;100.00;103901.06;10061739;28;20142;-68
2023/02/04 22:27:59;;;;;;;11.88;10.88;;;;;;;-0.71;100.00;103908.81;10056381;28;20071;-68
2023/02/04 22:32:58;;;;;;;10.70;9.85;;;;;;;-0.73;100.00;103905.44;10067363;28;20517;-68